PAL463 RKPK-RPLL
Flight info
| Callsign | PAL463 |
|---|---|
| Flight time | N/A |
| Altitude | 35000 |
| Route | BURIM3 BESNA Y209 IKE A582 POLIO POLIO3R |
| Aircraft | A321/M-SDE3FGHIRWY/LB1 |
Departure
| Time | 2026-05-06 11:57 |
|---|---|
| Airport | Gimhae International Airport (RKPK) |
Arrival
| Time | N/A |
|---|---|
| Airport | Ninoy Aquino International Airport (RPLL) |
| Time | Latitude | Longitude | Altitude | Speed | Heading |
|---|---|---|---|---|---|
| 2026-05-06 11:39 | 35.17011 | 128.94756 | 22 ft | 0 kts | 24° |
| 2026-05-06 11:41 | 35.17005 | 128.94753 | 22 ft | 2 kts | 24° |
| 2026-05-06 11:41 | 35.16991 | 128.94745 | 22 ft | 2 kts | 24° |
| 2026-05-06 11:42 | 35.16978 | 128.94739 | 22 ft | 1 kts | 24° |
| 2026-05-06 11:42 | 35.16968 | 128.94733 | 22 ft | 2 kts | 14° |
| 2026-05-06 11:42 | 35.16954 | 128.94731 | 22 ft | 2 kts | 355° |
| 2026-05-06 11:42 | 35.16940 | 128.94734 | 22 ft | 2 kts | 338° |
| 2026-05-06 11:43 | 35.16927 | 128.94743 | 22 ft | 2 kts | 321° |
| 2026-05-06 11:43 | 35.16917 | 128.94757 | 22 ft | 2 kts | 303° |
| 2026-05-06 11:43 | 35.16913 | 128.94766 | 22 ft | 1 kts | 292° |
| 2026-05-06 11:44 | 35.16911 | 128.94771 | 22 ft | 0 kts | 293° |
| 2026-05-06 11:46 | 35.16913 | 128.94765 | 22 ft | 2 kts | 293° |
| 2026-05-06 11:47 | 35.16924 | 128.94733 | 22 ft | 6 kts | 294° |
| 2026-05-06 11:47 | 35.16949 | 128.94669 | 22 ft | 10 kts | 295° |
| 2026-05-06 11:47 | 35.16980 | 128.94583 | 22 ft | 11 kts | 294° |
| 2026-05-06 11:47 | 35.17001 | 128.94493 | 22 ft | 11 kts | 267° |
| 2026-05-06 11:48 | 35.16993 | 128.94394 | 22 ft | 10 kts | 263° |
| 2026-05-06 11:48 | 35.17024 | 128.94318 | 22 ft | 11 kts | 342° |
| 2026-05-06 11:48 | 35.17106 | 128.94305 | 22 ft | 12 kts | 354° |
| 2026-05-06 11:48 | 35.17193 | 128.94293 | 22 ft | 13 kts | 354° |
| 2026-05-06 11:49 | 35.17285 | 128.94282 | 22 ft | 13 kts | 354° |
| 2026-05-06 11:49 | 35.17366 | 128.94270 | 22 ft | 10 kts | 354° |
| 2026-05-06 11:49 | 35.17439 | 128.94263 | 22 ft | 11 kts | 354° |
| 2026-05-06 11:49 | 35.17518 | 128.94252 | 22 ft | 11 kts | 354° |
| 2026-05-06 11:50 | 35.17603 | 128.94241 | 22 ft | 12 kts | 354° |
| 2026-05-06 11:50 | 35.17693 | 128.94229 | 22 ft | 13 kts | 354° |
| 2026-05-06 11:50 | 35.17785 | 128.94217 | 22 ft | 13 kts | 354° |
| 2026-05-06 11:50 | 35.17882 | 128.94205 | 22 ft | 14 kts | 354° |
| 2026-05-06 11:51 | 35.17981 | 128.94192 | 22 ft | 14 kts | 354° |
| 2026-05-06 11:51 | 35.18084 | 128.94179 | 22 ft | 14 kts | 354° |
| 2026-05-06 11:51 | 35.18187 | 128.94167 | 22 ft | 15 kts | 354° |
| 2026-05-06 11:51 | 35.18294 | 128.94153 | 22 ft | 15 kts | 354° |
| 2026-05-06 11:52 | 35.18393 | 128.94139 | 22 ft | 13 kts | 354° |
| 2026-05-06 11:52 | 35.18489 | 128.94127 | 22 ft | 14 kts | 354° |
| 2026-05-06 11:52 | 35.18589 | 128.94113 | 22 ft | 14 kts | 354° |
| 2026-05-06 11:52 | 35.18692 | 128.94099 | 22 ft | 15 kts | 354° |
| 2026-05-06 11:53 | 35.18796 | 128.94086 | 22 ft | 15 kts | 352° |
| 2026-05-06 11:53 | 35.18903 | 128.94073 | 22 ft | 15 kts | 355° |
| 2026-05-06 11:53 | 35.19011 | 128.94060 | 22 ft | 15 kts | 354° |
| 2026-05-06 11:53 | 35.19121 | 128.94046 | 22 ft | 15 kts | 354° |
| 2026-05-06 11:54 | 35.19231 | 128.94031 | 22 ft | 16 kts | 354° |
| 2026-05-06 11:54 | 35.19331 | 128.94019 | 22 ft | 10 kts | 354° |
| 2026-05-06 11:54 | 35.19400 | 128.93988 | 22 ft | 11 kts | 307° |
| 2026-05-06 11:54 | 35.19403 | 128.93890 | 22 ft | 11 kts | 264° |
| 2026-05-06 11:55 | 35.19394 | 128.93800 | 22 ft | 11 kts | 264° |
| 2026-05-06 11:55 | 35.19362 | 128.93747 | 22 ft | 5 kts | 182° |
| 2026-05-06 11:55 | 35.19353 | 128.93749 | 22 ft | 0 kts | 173° |
| 2026-05-06 11:56 | 35.19348 | 128.93749 | 22 ft | 6 kts | 173° |
| 2026-05-06 11:56 | 35.19072 | 128.93785 | 22 ft | 78 kts | 174° |
| 2026-05-06 11:56 | 35.18284 | 128.93887 | 22 ft | 147 kts | 174° |
| 2026-05-06 11:56 | 35.17146 | 128.94028 | 449 ft | 170 kts | 174° |
| 2026-05-06 11:57 | 35.15995 | 128.94185 | 1242 ft | 169 kts | 175° |
| 2026-05-06 11:57 | 35.14847 | 128.94270 | 1943 ft | 173 kts | 179° |
| 2026-05-06 11:57 | 35.13607 | 128.94286 | 2388 ft | 183 kts | 180° |
| 2026-05-06 11:57 | 35.12285 | 128.94298 | 2668 ft | 198 kts | 180° |
| 2026-05-06 11:58 | 35.10847 | 128.94324 | 2917 ft | 217 kts | 179° |
| 2026-05-06 11:58 | 35.09296 | 128.94365 | 3279 ft | 233 kts | 179° |
| 2026-05-06 11:58 | 35.07663 | 128.94415 | 3899 ft | 238 kts | 179° |
| 2026-05-06 11:58 | 35.06010 | 128.94472 | 4551 ft | 240 kts | 179° |
| 2026-05-06 11:59 | 35.04337 | 128.94528 | 4917 ft | 241 kts | 179° |
| 2026-05-06 11:59 | 35.02672 | 128.94585 | 4992 ft | 241 kts | 179° |
| 2026-05-06 11:59 | 35.00995 | 128.94641 | 4994 ft | 241 kts | 179° |
| 2026-05-06 11:59 | 34.99318 | 128.94701 | 4997 ft | 243 kts | 179° |
| 2026-05-06 12:00 | 34.97564 | 128.94778 | 5000 ft | 259 kts | 178° |
| 2026-05-06 12:00 | 34.95746 | 128.94865 | 4998 ft | 262 kts | 178° |
| 2026-05-06 12:00 | 34.93943 | 128.94954 | 4997 ft | 262 kts | 178° |
| 2026-05-06 12:00 | 34.92124 | 128.95041 | 4997 ft | 263 kts | 178° |
| 2026-05-06 12:01 | 34.90286 | 128.95171 | 4994 ft | 263 kts | 172° |
| 2026-05-06 12:01 | 34.89095 | 128.95485 | 4996 ft | 264 kts | 163° |
| 2026-05-06 12:01 | 34.86842 | 128.96739 | 5421 ft | 273 kts | 152° |
| 2026-05-06 12:01 | 34.85200 | 128.97839 | 6318 ft | 272 kts | 152° |
| 2026-05-06 12:02 | 34.83562 | 128.98946 | 7130 ft | 273 kts | 152° |
| 2026-05-06 12:02 | 34.81903 | 129.00060 | 7869 ft | 277 kts | 152° |
| 2026-05-06 12:02 | 34.80215 | 129.01186 | 8603 ft | 280 kts | 152° |
| 2026-05-06 12:02 | 34.79061 | 129.01953 | 9091 ft | 283 kts | 152° |
| 2026-05-06 12:03 | 34.73302 | 129.05762 | 10834 ft | 312 kts | 152° |
| 2026-05-06 12:03 | 34.71349 | 129.07050 | 11131 ft | 329 kts | 152° |
| 2026-05-06 12:04 | 34.69270 | 129.08421 | 11456 ft | 344 kts | 152° |
| 2026-05-06 12:04 | 34.67167 | 129.09808 | 12021 ft | 349 kts | 152° |
| 2026-05-06 12:04 | 34.65039 | 129.11214 | 12743 ft | 350 kts | 152° |
| 2026-05-06 12:04 | 34.62910 | 129.12619 | 13373 ft | 353 kts | 152° |
| 2026-05-06 12:05 | 34.60782 | 129.14140 | 13959 ft | 358 kts | 150° |
| 2026-05-06 12:05 | 34.58662 | 129.15721 | 14654 ft | 358 kts | 150° |
| 2026-05-06 12:05 | 34.56599 | 129.17267 | 15639 ft | 348 kts | 150° |
| 2026-05-06 12:05 | 34.54578 | 129.18782 | 16641 ft | 337 kts | 150° |
| 2026-05-06 12:06 | 34.52654 | 129.20222 | 17593 ft | 326 kts | 151° |
| 2026-05-06 12:06 | 34.50774 | 129.21628 | 18520 ft | 314 kts | 151° |
| 2026-05-06 12:06 | 34.48958 | 129.22983 | 19313 ft | 306 kts | 152° |
| 2026-05-06 12:06 | 34.47145 | 129.24330 | 19836 ft | 307 kts | 152° |
| 2026-05-06 12:07 | 34.45333 | 129.25674 | 20275 ft | 310 kts | 152° |
| 2026-05-06 12:07 | 34.43473 | 129.27055 | 20715 ft | 313 kts | 152° |
| 2026-05-06 12:07 | 34.41619 | 129.28432 | 21146 ft | 316 kts | 152° |
| 2026-05-06 12:07 | 34.39740 | 129.29828 | 21571 ft | 319 kts | 152° |
| 2026-05-06 12:08 | 34.37843 | 129.31236 | 21985 ft | 322 kts | 152° |
| 2026-05-06 12:08 | 34.35929 | 129.32658 | 22394 ft | 325 kts | 153° |
| 2026-05-06 12:08 | 34.33997 | 129.34091 | 22791 ft | 328 kts | 153° |
| 2026-05-06 12:08 | 34.32053 | 129.35533 | 23183 ft | 331 kts | 153° |
| 2026-05-06 12:09 | 34.30095 | 129.36986 | 23569 ft | 334 kts | 153° |
| 2026-05-06 12:09 | 34.28110 | 129.38457 | 23951 ft | 337 kts | 153° |
| 2026-05-06 12:09 | 34.26110 | 129.39938 | 24316 ft | 340 kts | 153° |
| 2026-05-06 12:09 | 34.24099 | 129.41426 | 24665 ft | 343 kts | 153° |
| 2026-05-06 12:10 | 34.22052 | 129.42941 | 25018 ft | 346 kts | 153° |
| 2026-05-06 12:10 | 34.19983 | 129.44470 | 25367 ft | 349 kts | 153° |
| 2026-05-06 12:10 | 34.17893 | 129.46014 | 25708 ft | 352 kts | 153° |
| 2026-05-06 12:10 | 34.17207 | 129.46521 | 25819 ft | 353 kts | 153° |